Time;durP1;ratioP1;P1;durP2;ratioP2;P2;SDS_P1;SDS_P2;PMS_P1;PMS_P2;Temp;Humidity;BMP_temperature;BMP_pressure;BME280_temperature;BME280_humidity;BME280_pressure;Samples;Min_cycle;Max_cycle;Signal;HPM_P1;HPM_P2
2022/10/15 00:01:32;;;;;;;3.70;2.00;;;;;;;;;;4995329;28;20206;-78
2022/10/15 00:04:36;;;;;;;2.93;2.10;;;;;;;;;;5017449;28;20217;-78
2022/10/15 00:07:40;;;;;;;7.33;2.43;;;;;;;;;;5018346;28;20177;-77
2022/10/15 00:10:44;;;;;;;9.47;2.50;;;;;;;;;;5017598;28;20181;-79
2022/10/15 00:13:52;;;;;;;4.23;2.60;;;;;;;;;;5017791;28;20208;-78
2022/10/15 00:16:56;;;;;;;3.20;2.43;;;;;;;;;;5029158;28;20636;-78
2022/10/15 00:20:02;;;;;;;2.80;2.40;;;;;;;;;;5040517;28;20221;-78
2022/10/15 00:23:06;;;;;;;5.87;3.37;;;;;;;;;;5040364;28;20217;-79
2022/10/15 00:26:17;;;;;;;3.80;2.10;;;;;;;;;;5017893;28;20178;-78
2022/10/15 00:29:22;;;;;;;2.90;1.90;;;;;;;;;;5017049;28;20190;-78
2022/10/15 00:32:32;;;;;;;2.87;2.03;;;;;;;;;;4994511;28;20618;-77
2022/10/15 00:35:36;;;;;;;7.23;1.90;;;;;;;;;;5038676;28;20177;-77
2022/10/15 00:38:41;;;;;;;4.70;1.47;;;;;;;;;;5037898;28;20181;-77
2022/10/15 00:41:45;;;;;;;4.50;1.60;;;;;;;;;;5026498;28;20221;-77
2022/10/15 00:44:57;;;;;;;2.50;1.60;;;;;;;;;;5026074;28;20217;-77
2022/10/15 00:48:01;;;;;;;3.73;1.60;;;;;;;;;;5026968;28;20186;-78
2022/10/15 00:51:05;;;;;;;3.00;1.57;;;;;;;;;;5027199;28;20173;-78
2022/10/15 00:54:11;;;;;;;2.53;1.80;;;;;;;;;;5027438;28;20225;-78
2022/10/15 00:57:16;;;;;;;2.70;1.63;;;;;;;;;;5039252;28;20182;-78
2022/10/15 01:00:20;;;;;;;3.60;1.33;;;;;;;;;;5039218;28;20542;-79
2022/10/15 01:03:24;;;;;;;1.60;1.50;;;;;;;;;;5038073;28;20220;-77
2022/10/15 01:06:28;;;;;;;3.77;2.00;;;;;;;;;;5015762;28;20177;-79
2022/10/15 01:09:33;;;;;;;3.20;1.80;;;;;;;;;;4993664;28;20201;-77
2022/10/15 01:12:52;;;;;;;3.43;1.60;;;;;;;;;;5043813;28;20664;-78
2022/10/15 01:16:00;;;;;;;3.27;2.03;;;;;;;;;;5036775;28;20181;-79
2022/10/15 01:19:26;;;;;;;1.93;1.70;;;;;;;;;;5024626;28;20181;-78
2022/10/15 01:22:51;;;;;;;1.87;1.60;;;;;;;;;;5025304;28;20498;-79
2022/10/15 01:26:43;;;;;;;3.43;1.60;;;;;;;;;;5024589;28;20177;-78
2022/10/15 01:30:03;;;;;;;5.80;1.40;;;;;;;;;;5024726;28;20208;-79
2022/10/15 01:33:13;;;;;;;1.30;1.10;;;;;;;;;;5048008;28;20217;-80
2022/10/15 01:36:34;;;;;;;1.67;1.10;;;;;;;;;;5036473;28;20644;-79
2022/10/15 01:39:44;;;;;;;2.80;1.10;;;;;;;;;;5047367;28;20177;-78
2022/10/15 01:42:59;;;;;;;2.47;1.27;;;;;;;;;;5024021;28;20668;-78
2022/10/15 01:46:17;;;;;;;1.63;1.20;;;;;;;;;;5024582;28;20181;-79
2022/10/15 01:49:53;;;;;;;4.93;1.53;;;;;;;;;;5035722;28;20181;-79
2022/10/15 01:52:59;;;;;;;4.77;1.17;;;;;;;;;;5047284;28;20791;-78
2022/10/15 01:56:13;;;;;;;2.00;1.13;;;;;;;;;;5035881;28;20181;-79
2022/10/15 01:59:21;;;;;;;1.97;1.23;;;;;;;;;;5035471;28;20185;-78
2022/10/15 02:02:25;;;;;;;1.47;1.10;;;;;;;;;;5046936;28;20181;-79
2022/10/15 02:05:38;;;;;;;2.70;1.13;;;;;;;;;;5035216;28;20624;-79
2022/10/15 02:09:12;;;;;;;1.97;0.80;;;;;;;;;;5034887;28;20193;-79
2022/10/15 02:12:34;;;;;;;1.03;0.83;;;;;;;;;;5040912;28;20177;-79
2022/10/15 02:15:53;;;;;;;1.43;1.03;;;;;;;;;;5023982;28;20178;-79
2022/10/15 02:19:14;;;;;;;1.10;0.63;;;;;;;;;;5024255;28;20181;-79
2022/10/15 02:22:58;;;;;;;1.73;1.10;;;;;;;;;;5025293;28;20688;-79
2022/10/15 02:26:06;;;;;;;3.23;1.00;;;;;;;;;;5017989;28;20205;-79
2022/10/15 02:29:16;;;;;;;0.93;0.90;;;;;;;;;;5028214;28;20629;-79
2022/10/15 02:32:22;;;;;;;3.13;1.03;;;;;;;;;;5027552;28;20181;-78
2022/10/15 02:35:26;;;;;;;2.93;0.80;;;;;;;;;;5061884;28;20518;-79
2022/10/15 02:38:32;;;;;;;4.13;0.83;;;;;;;;;;5028375;28;20185;-79
2022/10/15 02:41:37;;;;;;;3.13;0.70;;;;;;;;;;5038515;28;20208;-79
2022/10/15 02:44:41;;;;;;;0.90;0.80;;;;;;;;;;5027690;28;20217;-78
2022/10/15 02:47:46;;;;;;;1.17;0.90;;;;;;;;;;5061472;28;20177;-79
2022/10/15 02:50:50;;;;;;;0.77;0.70;;;;;;;;;;5028217;28;20172;-79
2022/10/15 02:53:54;;;;;;;1.43;0.80;;;;;;;;;;5027072;28;20216;-79
2022/10/15 02:56:58;;;;;;;1.27;0.80;;;;;;;;;;5038684;28;20192;-80
2022/10/15 03:00:04;;;;;;;2.20;0.90;;;;;;;;;;5062032;28;20173;-79
2022/10/15 03:03:09;;;;;;;2.27;0.70;;;;;;;;;;5027781;28;20692;-79
2022/10/15 03:06:14;;;;;;;1.00;0.77;;;;;;;;;;5038846;28;20201;-80
2022/10/15 03:09:19;;;;;;;2.60;0.80;;;;;;;;;;5028124;28;20196;-79
2022/10/15 03:12:24;;;;;;;0.87;0.80;;;;;;;;;;5028109;28;20173;-79
2022/10/15 03:15:29;;;;;;;2.00;0.90;;;;;;;;;;5050939;28;20181;-79
2022/10/15 03:18:33;;;;;;;1.37;0.93;;;;;;;;;;5037292;28;20184;-78
2022/10/15 03:21:38;;;;;;;3.43;0.80;;;;;;;;;;5060845;28;20557;-78
2022/10/15 03:24:47;;;;;;;2.47;0.83;;;;;;;;;;5026720;28;20217;-78
2022/10/15 03:27:56;;;;;;;2.67;0.83;;;;;;;;;;5048175;28;20181;-77
2022/10/15 03:31:08;;;;;;;1.13;0.90;;;;;;;;;;5047593;28;20177;-78
2022/10/15 03:34:13;;;;;;;0.70;0.67;;;;;;;;;;5036281;28;20691;-77
2022/10/15 03:37:18;;;;;;;3.83;0.90;;;;;;;;;;5024883;28;20177;-78
2022/10/15 03:40:23;;;;;;;1.37;0.90;;;;;;;;;;5037930;28;20185;-78
2022/10/15 03:43:30;;;;;;;3.70;0.77;;;;;;;;;;5026312;28;20220;-78
2022/10/15 03:46:38;;;;;;;1.50;0.80;;;;;;;;;;5048594;28;20181;-77
2022/10/15 03:49:42;;;;;;;1.67;0.90;;;;;;;;;;5036948;28;20176;-77
2022/10/15 03:52:46;;;;;;;2.23;1.10;;;;;;;;;;5025313;28;20180;-78
2022/10/15 03:55:51;;;;;;;2.77;0.83;;;;;;;;;;5025390;28;20526;-77
2022/10/15 03:58:55;;;;;;;2.03;1.00;;;;;;;;;;5037327;28;20200;-78
2022/10/15 04:01:59;;;;;;;1.00;0.80;;;;;;;;;;5036857;28;20213;-78
2022/10/15 04:05:04;;;;;;;0.93;0.80;;;;;;;;;;5036328;28;20216;-78
2022/10/15 04:08:08;;;;;;;1.40;0.90;;;;;;;;;;5025207;28;20181;-77
2022/10/15 04:11:16;;;;;;;1.27;0.80;;;;;;;;;;5036940;28;20197;-77
2022/10/15 04:14:21;;;;;;;3.97;0.77;;;;;;;;;;5047612;28;20221;-77
2022/10/15 04:17:26;;;;;;;1.53;0.60;;;;;;;;;;5036810;28;20181;-79
2022/10/15 04:20:30;;;;;;;1.43;0.60;;;;;;;;;;5036187;28;20181;-79
2022/10/15 04:23:46;;;;;;;1.10;0.63;;;;;;;;;;5036618;28;20220;-78
2022/10/15 04:27:00;;;;;;;2.40;0.60;;;;;;;;;;5025616;28;20181;-78
2022/10/15 04:30:05;;;;;;;1.10;0.50;;;;;;;;;;5024899;28;20184;-78
2022/10/15 04:33:09;;;;;;;0.97;0.60;;;;;;;;;;5036372;28;20692;-78
2022/10/15 04:36:13;;;;;;;1.20;0.57;;;;;;;;;;5036361;28;20625;-79
2022/10/15 04:39:25;;;;;;;2.87;0.47;;;;;;;;;;5046719;28;20185;-78
2022/10/15 04:42:30;;;;;;;4.33;0.80;;;;;;;;;;5036061;28;20205;-77
2022/10/15 04:45:34;;;;;;;1.37;0.50;;;;;;;;;;5035680;28;20185;-78
2022/10/15 04:48:39;;;;;;;0.40;0.40;;;;;;;;;;5024101;28;20200;-78
2022/10/15 04:51:47;;;;;;;0.40;0.40;;;;;;;;;;5058641;28;20177;-77
2022/10/15 04:54:57;;;;;;;2.23;0.40;;;;;;;;;;5024616;28;20220;-79
2022/10/15 04:58:01;;;;;;;2.17;0.40;;;;;;;;;;5024387;28;20192;-78
2022/10/15 05:01:11;;;;;;;0.60;0.47;;;;;;;;;;5058368;28;20181;-78
2022/10/15 05:04:30;;;;;;;0.43;0.40;;;;;;;;;;5025138;28;20221;-77
2022/10/15 05:07:34;;;;;;;0.53;0.53;;;;;;;;;;5035207;28;20181;-77
2022/10/15 05:10:39;;;;;;;2.57;0.50;;;;;;;;;;5024230;28;20181;-78
2022/10/15 05:13:45;;;;;;;0.60;0.60;;;;;;;;;;5035296;28;20212;-81
2022/10/15 05:16:50;;;;;;;1.33;0.70;;;;;;;;;;5023623;28;20185;-82
2022/10/15 05:19:54;;;;;;;0.90;0.50;;;;;;;;;;5023710;28;20177;-83
2022/10/15 05:23:05;;;;;;;1.80;0.77;;;;;;;;;;5023941;28;20216;-82
2022/10/15 05:26:15;;;;;;;5.23;0.63;;;;;;;;;;5046347;28;20197;-81
2022/10/15 05:29:20;;;;;;;1.40;0.60;;;;;;;;;;5037760;28;20200;-79
2022/10/15 05:32:24;;;;;;;1.17;0.70;;;;;;;;;;5025890;28;20509;-83
2022/10/15 05:35:29;;;;;;;2.03;0.60;;;;;;;;;;5037508;28;20181;-82
2022/10/15 05:38:46;;;;;;;2.37;0.77;;;;;;;;;;5038064;28;20640;-83
2022/10/15 05:41:52;;;;;;;2.07;0.87;;;;;;;;;;5036766;28;20216;-83
2022/10/15 05:45:00;;;;;;;2.33;0.80;;;;;;;;;;5023659;28;20213;-81
2022/10/15 05:48:05;;;;;;;1.20;0.60;;;;;;;;;;5034288;28;20192;-80
2022/10/15 05:51:11;;;;;;;1.63;0.50;;;;;;;;;;5023255;28;20184;-81
2022/10/15 05:54:16;;;;;;;0.83;0.53;;;;;;;;;;5022600;28;20220;-82
2022/10/15 05:57:21;;;;;;;3.13;0.60;;;;;;;;;;5024349;28;20177;-81
2022/10/15 06:00:25;;;;;;;2.37;0.50;;;;;;;;;;5026154;28;20196;-81
2022/10/15 06:03:30;;;;;;;3.57;3.03;;;;;;;;;;5015957;28;20232;-82
2022/10/15 06:06:34;;;;;;;1.77;1.10;;;;;;;;;;5039151;28;20177;-82
2022/10/15 06:09:38;;;;;;;0.80;0.80;;;;;;;;;;5016426;28;20173;-82
2022/10/15 06:12:47;;;;;;;0.73;0.50;;;;;;;;;;5017302;28;20177;-82
2022/10/15 06:15:51;;;;;;;2.30;1.03;;;;;;;;;;5016427;28;20177;-82
2022/10/15 06:18:55;;;;;;;2.10;1.10;;;;;;;;;;5039945;28;20185;-82
2022/10/15 06:21:59;;;;;;;0.80;0.50;;;;;;;;;;5016192;28;20216;-82
2022/10/15 06:25:03;;;;;;;3.30;0.50;;;;;;;;;;5026729;28;20212;-81
2022/10/15 06:28:08;;;;;;;0.87;0.60;;;;;;;;;;5026276;28;20181;-82
2022/10/15 06:31:18;;;;;;;0.97;0.50;;;;;;;;;;5016982;28;20517;-82
2022/10/15 06:34:22;;;;;;;1.70;1.20;;;;;;;;;;5038533;28;20220;-82
2022/10/15 06:37:28;;;;;;;1.80;1.43;;;;;;;;;;5016513;28;20185;-81
2022/10/15 06:40:37;;;;;;;2.73;0.60;;;;;;;;;;5017591;28;20197;-82
2022/10/15 06:43:41;;;;;;;1.73;0.80;;;;;;;;;;5018873;28;20250;-82
2022/10/15 06:46:46;;;;;;;0.70;0.60;;;;;;;;;;5018064;28;20176;-82
2022/10/15 06:49:50;;;;;;;2.80;0.87;;;;;;;;;;5019066;28;20180;-82
2022/10/15 06:52:54;;;;;;;3.13;0.97;;;;;;;;;;5040244;28;20180;-82
2022/10/15 06:56:05;;;;;;;1.87;1.00;;;;;;;;;;5014435;28;20177;-81
2022/10/15 06:59:18;;;;;;;0.77;0.77;;;;;;;;;;5016333;28;20189;-82
2022/10/15 07:02:23;;;;;;;1.33;0.90;;;;;;;;;;5030460;28;20565;-83
2022/10/15 07:05:27;;;;;;;1.17;0.60;;;;;;;;;;5028220;28;20637;-83
2022/10/15 07:08:32;;;;;;;1.93;0.80;;;;;;;;;;5015324;28;20185;-83
2022/10/15 07:11:36;;;;;;;1.00;0.97;;;;;;;;;;5016746;28;20181;-82
2022/10/15 07:14:41;;;;;;;28.90;2.50;;;;;;;;;;5016184;28;20216;-82
2022/10/15 07:17:49;;;;;;;2.07;1.60;;;;;;;;;;5041200;28;20201;-82
2022/10/15 07:20:56;;;;;;;5.90;3.27;;;;;;;;;;5038915;28;20620;-82
2022/10/15 07:24:00;;;;;;;3.23;2.07;;;;;;;;;;5037033;28;20220;-81
2022/10/15 07:27:04;;;;;;;6.40;1.40;;;;;;;;;;5039383;28;20192;-82
2022/10/15 07:30:09;;;;;;;2.13;0.80;;;;;;;;;;5035746;28;20209;-83
2022/10/15 07:33:13;;;;;;;3.20;1.13;;;;;;;;;;5024153;28;20221;-82
2022/10/15 07:36:24;;;;;;;2.17;0.90;;;;;;;;;;5034498;28;20189;-82
2022/10/15 07:39:28;;;;;;;3.07;0.70;;;;;;;;;;5034126;28;20573;-82
2022/10/15 07:42:33;;;;;;;1.97;0.70;;;;;;;;;;5023436;28;20220;-82
2022/10/15 07:45:38;;;;;;;5.90;0.60;;;;;;;;;;5012546;28;20185;-81
2022/10/15 07:48:44;;;;;;;2.10;0.83;;;;;;;;;;5021970;28;20185;-83
2022/10/15 07:51:48;;;;;;;1.63;0.57;;;;;;;;;;5023863;28;20541;-82
2022/10/15 07:54:52;;;;;;;1.77;0.60;;;;;;;;;;5034577;28;20224;-82
2022/10/15 07:57:57;;;;;;;0.40;0.40;;;;;;;;;;5021133;28;20184;-82
2022/10/15 08:01:03;;;;;;;0.70;0.40;;;;;;;;;;5013196;28;20180;-81
2022/10/15 08:04:08;;;;;;;1.13;0.60;;;;;;;;;;5024663;28;20228;-82
2022/10/15 08:07:14;;;;;;;2.90;1.13;;;;;;;;;;5014542;28;20189;-80
2022/10/15 08:10:18;;;;;;;2.57;0.77;;;;;;;;;;5035621;28;20180;-80
2022/10/15 08:13:22;;;;;;;0.77;0.77;;;;;;;;;;5038309;28;20212;-81
2022/10/15 08:16:27;;;;;;;1.07;0.50;;;;;;;;;;5035436;28;20537;-81
2022/10/15 08:19:37;;;;;;;0.70;0.70;;;;;;;;;;5038230;28;20629;-80
2022/10/15 08:22:42;;;;;;;2.40;0.80;;;;;;;;;;5015125;28;20204;-81
2022/10/15 08:25:46;;;;;;;2.60;0.47;;;;;;;;;;5025474;28;20177;-81
2022/10/15 08:28:51;;;;;;;1.00;0.50;;;;;;;;;;5037430;28;20181;-81
2022/10/15 08:31:57;;;;;;;0.93;0.47;;;;;;;;;;5016028;28;20196;-83
2022/10/15 08:35:01;;;;;;;1.30;0.57;;;;;;;;;;5028522;28;20557;-84
2022/10/15 08:38:10;;;;;;;2.17;1.37;;;;;;;;;;5027928;28;20192;-84
2022/10/15 08:41:58;;;;;;;9.80;9.00;;;;;;;;;;5041827;28;20185;-83
2022/10/15 08:45:15;;;;;;;2.63;2.27;;;;;;;;;;4983861;28;20213;-84
2022/10/15 08:48:29;;;;;;;1.90;1.20;;;;;;;;;;4999113;28;20197;-84
2022/10/15 08:51:45;;;;;;;0.43;0.43;;;;;;;;;;5039651;28;20177;-84
2022/10/15 08:54:50;;;;;;;2.67;0.50;;;;;;;;;;5038534;28;20225;-84
2022/10/15 08:58:24;;;;;;;3.90;3.50;;;;;;;;;;5025978;28;20176;-84
2022/10/15 09:01:47;;;;;;;0.87;0.50;;;;;;;;;;5024912;28;20220;-84
2022/10/15 09:04:51;;;;;;;3.03;0.67;;;;;;;;;;5025495;28;20208;-85
2022/10/15 09:08:13;;;;;;;0.50;0.50;;;;;;;;;;5037291;28;20185;-83
2022/10/15 09:11:36;;;;;;;1.73;0.60;;;;;;;;;;5014305;28;20632;-84
2022/10/15 09:14:43;;;;;;;2.13;0.53;;;;;;;;;;5012651;28;20217;-83
2022/10/15 09:17:50;;;;;;;0.93;0.83;;;;;;;;;;5013008;28;20181;-83
2022/10/15 09:21:01;;;;;;;3.30;2.97;;;;;;;;;;5035459;28;20173;-84
2022/10/15 09:24:05;;;;;;;2.00;0.80;;;;;;;;;;5012372;28;20699;-85
2022/10/15 09:27:33;;;;;;;0.70;0.60;;;;;;;;;;5037061;28;20192;-83
2022/10/15 09:30:49;;;;;;;0.97;0.50;;;;;;;;;;5024952;28;20513;-84
2022/10/15 09:34:06;;;;;;;0.83;0.40;;;;;;;;;;5012637;28;20209;-84
2022/10/15 09:37:57;;;;;;;1.90;0.57;;;;;;;;;;5013908;28;20189;-84
2022/10/15 09:41:26;;;;;;;3.40;0.70;;;;;;;;;;5036618;28;20185;-86
2022/10/15 09:44:38;;;;;;;0.60;0.60;;;;;;;;;;5011337;28;20236;-80
2022/10/15 09:47:43;;;;;;;0.80;0.60;;;;;;;;;;5021442;28;20173;-79
2022/10/15 09:50:59;;;;;;;0.90;0.50;;;;;;;;;;5009975;28;20173;-78
2022/10/15 09:54:21;;;;;;;0.77;0.40;;;;;;;;;;5021874;28;20225;-79
2022/10/15 09:57:32;;;;;;;1.07;0.40;;;;;;;;;;5033601;28;20628;-80
2022/10/15 10:01:06;;;;;;;0.90;0.53;;;;;;;;;;5011600;28;20201;-80
2022/10/15 10:04:19;;;;;;;0.97;0.30;;;;;;;;;;5023375;28;20241;-82
2022/10/15 10:07:28;;;;;;;0.57;0.40;;;;;;;;;;5035723;28;20181;-84
2022/10/15 10:10:36;;;;;;;1.17;0.63;;;;;;;;;;5025933;28;20185;-83
2022/10/15 10:13:46;;;;;;;0.60;0.60;;;;;;;;;;5012248;28;20208;-83
2022/10/15 10:17:10;;;;;;;0.83;0.40;;;;;;;;;;5034074;28;20200;-84
2022/10/15 10:20:18;;;;;;;0.57;0.30;;;;;;;;;;5012221;28;20181;-84
2022/10/15 10:23:27;;;;;;;2.57;0.50;;;;;;;;;;5013519;28;20236;-84
2022/10/15 10:26:34;;;;;;;0.20;0.20;;;;;;;;;;5012363;28;20292;-83
2022/10/15 10:29:40;;;;;;;2.67;0.57;;;;;;;;;;5034796;28;20176;-83
2022/10/15 10:32:45;;;;;;;2.00;0.30;;;;;;;;;;5035744;28;20181;-83
2022/10/15 10:35:50;;;;;;;0.20;0.20;;;;;;;;;;5023776;28;20181;-83
2022/10/15 10:39:00;;;;;;;0.20;0.20;;;;;;;;;;5024929;28;20189;-83
2022/10/15 10:42:29;;;;;;;2.43;0.50;;;;;;;;;;5037038;28;20181;-82
2022/10/15 10:45:35;;;;;;;2.97;0.40;;;;;;;;;;5040040;28;20188;-82
2022/10/15 10:48:44;;;;;;;0.57;0.33;;;;;;;;;;5038127;28;20189;-82
2022/10/15 10:51:49;;;;;;;0.30;0.30;;;;;;;;;;5023769;28;20181;-83
2022/10/15 10:55:03;;;;;;;1.57;0.40;;;;;;;;;;5038708;28;20224;-83
2022/10/15 10:58:18;;;;;;;1.07;0.50;;;;;;;;;;5015399;28;20181;-83
2022/10/15 11:01:23;;;;;;;0.57;0.40;;;;;;;;;;5024449;28;20201;-82
2022/10/15 11:04:30;;;;;;;1.97;0.43;;;;;;;;;;5037310;28;20224;-83
2022/10/15 11:07:51;;;;;;;1.90;0.40;;;;;;;;;;5037084;28;20644;-82
2022/10/15 11:11:20;;;;;;;0.60;0.50;;;;;;;;;;5037148;28;20181;-83
2022/10/15 11:14:53;;;;;;;0.40;0.40;;;;;;;;;;5025380;28;20688;-82
2022/10/15 11:18:36;;;;;;;2.10;0.50;;;;;;;;;;5011099;28;20192;-81
2022/10/15 11:22:15;;;;;;;1.13;0.30;;;;;;;;;;5024865;28;20638;-84
2022/10/15 11:25:37;;;;;;;1.03;0.30;;;;;;;;;;5015173;28;20173;-85
2022/10/15 11:29:09;;;;;;;1.30;0.40;;;;;;;;;;5015154;28;20189;-84
2022/10/15 11:32:32;;;;;;;1.33;0.40;;;;;;;;;;5027218;28;20184;-84
2022/10/15 11:36:14;;;;;;;1.53;0.40;;;;;;;;;;5015355;28;20177;-84
2022/10/15 11:39:28;;;;;;;2.13;0.53;;;;;;;;;;5015346;28;20173;-84
2022/10/15 11:42:56;;;;;;;0.67;0.40;;;;;;;;;;5015441;28;20192;-84
2022/10/15 11:46:37;;;;;;;0.50;0.30;;;;;;;;;;5037832;28;20185;-84
2022/10/15 11:50:24;;;;;;;2.77;0.37;;;;;;;;;;5017382;28;20185;-84
2022/10/15 11:53:53;;;;;;;1.37;0.40;;;;;;;;;;5014335;28;20224;-84
2022/10/15 11:57:00;;;;;;;0.93;0.40;;;;;;;;;;5015167;28;20176;-84
2022/10/15 12:00:16;;;;;;;0.33;0.33;;;;;;;;;;5014889;28;20177;-84
2022/10/15 12:03:24;;;;;;;0.67;0.40;;;;;;;;;;5037866;28;20275;-84
2022/10/15 12:06:38;;;;;;;1.87;0.70;;;;;;;;;;5015219;28;20173;-85
2022/10/15 12:09:47;;;;;;;1.83;1.03;;;;;;;;;;5014636;28;20197;-83
2022/10/15 12:13:33;;;;;;;5.13;1.80;;;;;;;;;;5017505;28;20624;-85
2022/10/15 12:16:45;;;;;;;1.53;0.60;;;;;;;;;;5016318;28;20197;-84
2022/10/15 12:19:55;;;;;;;4.00;0.53;;;;;;;;;;5026457;28;20180;-85
2022/10/15 12:23:01;;;;;;;1.20;0.60;;;;;;;;;;5014847;28;20193;-85
2022/10/15 12:26:24;;;;;;;1.30;0.50;;;;;;;;;;5037685;28;20193;-85
2022/10/15 12:29:28;;;;;;;2.73;0.60;;;;;;;;;;5013826;28;20177;-85
2022/10/15 12:32:42;;;;;;;0.83;0.50;;;;;;;;;;5014685;28;20177;-85
2022/10/15 12:35:58;;;;;;;5.03;1.10;;;;;;;;;;5025977;28;20181;-85
2022/10/15 12:39:07;;;;;;;2.47;0.80;;;;;;;;;;5037250;28;20636;-84
2022/10/15 12:42:25;;;;;;;3.90;0.73;;;;;;;;;;5035770;28;20241;-85
2022/10/15 12:45:34;;;;;;;2.23;0.70;;;;;;;;;;5011887;28;20213;-85
2022/10/15 12:48:46;;;;;;;2.03;0.70;;;;;;;;;;5024221;28;20181;-85
2022/10/15 12:51:50;;;;;;;3.50;0.60;;;;;;;;;;5034820;28;20180;-84
2022/10/15 12:55:24;;;;;;;2.57;0.60;;;;;;;;;;5035075;28;20212;-85
2022/10/15 12:58:34;;;;;;;2.23;0.57;;;;;;;;;;5012862;28;20189;-85
2022/10/15 13:01:41;;;;;;;1.57;0.50;;;;;;;;;;5012439;28;20196;-85
2022/10/15 13:04:46;;;;;;;1.87;0.60;;;;;;;;;;5035192;28;20695;-85
2022/10/15 13:07:51;;;;;;;5.33;0.60;;;;;;;;;;5023883;28;20197;-78
2022/10/15 13:10:58;;;;;;;1.53;0.60;;;;;;;;;;5037046;28;20181;-84
2022/10/15 13:14:11;;;;;;;1.53;0.60;;;;;;;;;;5012494;28;20236;-84
2022/10/15 13:17:21;;;;;;;2.20;0.60;;;;;;;;;;5036260;28;20197;-86
2022/10/15 13:20:44;;;;;;;8.37;0.70;;;;;;;;;;5022656;28;20177;-84
2022/10/15 13:23:50;;;;;;;3.23;0.77;;;;;;;;;;5022357;28;20220;-85
2022/10/15 13:26:56;;;;;;;2.17;0.90;;;;;;;;;;5034479;28;20200;-86
2022/10/15 13:30:05;;;;;;;15.10;1.80;;;;;;;;;;5016104;28;20636;-84
2022/10/15 13:33:10;;;;;;;4.37;0.80;;;;;;;;;;5016803;28;20217;-86
2022/10/15 13:36:26;;;;;;;2.50;0.50;;;;;;;;;;5020754;28;20177;-85
2022/10/15 13:39:36;;;;;;;1.30;0.60;;;;;;;;;;5015237;28;20181;-85
2022/10/15 13:43:14;;;;;;;5.30;0.87;;;;;;;;;;5040511;28;20181;-85
2022/10/15 13:46:18;;;;;;;5.73;0.70;;;;;;;;;;5035000;28;20177;-85
2022/10/15 13:49:22;;;;;;;1.20;0.67;;;;;;;;;;5014122;28;20205;-83
2022/10/15 13:52:26;;;;;;;1.50;0.63;;;;;;;;;;5036089;28;20636;-83
2022/10/15 13:55:35;;;;;;;1.27;0.53;;;;;;;;;;5013509;28;20200;-83
2022/10/15 13:58:39;;;;;;;1.57;0.50;;;;;;;;;;5014224;28;20181;-84
2022/10/15 14:01:50;;;;;;;3.17;1.07;;;;;;;;;;5037570;28;20200;-84
2022/10/15 14:05:14;;;;;;;4.17;0.73;;;;;;;;;;5025961;28;20229;-85
2022/10/15 14:08:32;;;;;;;2.63;0.90;;;;;;;;;;5036446;28;20195;-85
2022/10/15 14:11:38;;;;;;;2.00;0.80;;;;;;;;;;5036210;28;20189;-84
2022/10/15 14:14:48;;;;;;;3.13;0.90;;;;;;;;;;5037271;28;20212;-84
2022/10/15 14:17:52;;;;;;;2.80;0.80;;;;;;;;;;5036960;28;20641;-83
2022/10/15 14:20:56;;;;;;;2.77;0.90;;;;;;;;;;5026653;28;20205;-83
2022/10/15 14:24:22;;;;;;;4.27;1.03;;;;;;;;;;5018169;28;20565;-83
2022/10/15 14:27:28;;;;;;;2.73;0.70;;;;;;;;;;5016635;28;20197;-82
2022/10/15 14:30:35;;;;;;;3.47;0.70;;;;;;;;;;5039756;28;20177;-83
2022/10/15 14:33:42;;;;;;;1.07;0.80;;;;;;;;;;5016851;28;20216;-83
2022/10/15 14:36:46;;;;;;;4.23;0.70;;;;;;;;;;5015605;28;20181;-83
2022/10/15 14:40:06;;;;;;;1.47;0.60;;;;;;;;;;5026155;28;20172;-82
2022/10/15 14:43:16;;;;;;;1.17;0.60;;;;;;;;;;5014587;28;20213;-82
2022/10/15 14:46:20;;;;;;;2.70;0.70;;;;;;;;;;5014602;28;20529;-82
2022/10/15 14:49:29;;;;;;;3.40;0.60;;;;;;;;;;5038107;28;20181;-83
2022/10/15 14:52:35;;;;;;;1.27;0.60;;;;;;;;;;5032741;28;20185;-84
2022/10/15 14:55:48;;;;;;;4.43;0.57;;;;;;;;;;5019583;28;20173;-84
2022/10/15 14:58:56;;;;;;;3.30;0.83;;;;;;;;;;5037860;28;20180;-83
2022/10/15 15:02:01;;;;;;;2.17;0.60;;;;;;;;;;5015418;28;20189;-83
2022/10/15 15:05:11;;;;;;;1.83;0.60;;;;;;;;;;5025781;28;20560;-85
2022/10/15 15:08:15;;;;;;;2.97;0.83;;;;;;;;;;5037739;28;20177;-84
2022/10/15 15:11:22;;;;;;;1.60;0.50;;;;;;;;;;5026625;28;20181;-84
2022/10/15 15:14:26;;;;;;;2.67;0.60;;;;;;;;;;5026245;28;20204;-83
2022/10/15 15:17:30;;;;;;;2.70;0.90;;;;;;;;;;5027145;28;20184;-83
2022/10/15 15:20:35;;;;;;;1.83;0.70;;;;;;;;;;5015184;28;20180;-83
2022/10/15 15:23:40;;;;;;;1.63;0.80;;;;;;;;;;5015475;28;20216;-83
2022/10/15 15:26:44;;;;;;;3.73;0.87;;;;;;;;;;5037551;28;20188;-82
2022/10/15 15:29:49;;;;;;;1.70;0.87;;;;;;;;;;5025868;28;20197;-82
2022/10/15 15:32:54;;;;;;;2.13;1.00;;;;;;;;;;5028097;28;20541;-83
2022/10/15 15:36:01;;;;;;;2.37;0.90;;;;;;;;;;5029089;28;20200;-82
2022/10/15 15:39:06;;;;;;;4.13;1.13;;;;;;;;;;5044979;28;20177;-83
2022/10/15 15:42:16;;;;;;;3.13;0.90;;;;;;;;;;5041671;28;20177;-80
2022/10/15 15:45:25;;;;;;;5.87;0.90;;;;;;;;;;5037173;28;20209;-79
2022/10/15 15:48:29;;;;;;;6.40;1.00;;;;;;;;;;5037191;28;20181;-80
2022/10/15 15:51:33;;;;;;;3.33;0.97;;;;;;;;;;5040791;28;20181;-80
2022/10/15 15:54:38;;;;;;;3.43;0.87;;;;;;;;;;5036442;28;20212;-79
2022/10/15 15:57:42;;;;;;;3.70;1.00;;;;;;;;;;5025302;28;20688;-80
2022/10/15 16:00:46;;;;;;;2.73;1.73;;;;;;;;;;5037802;28;20192;-79
2022/10/15 16:03:50;;;;;;;2.73;1.00;;;;;;;;;;5025196;28;20557;-79
2022/10/15 16:06:54;;;;;;;2.00;0.80;;;;;;;;;;5035816;28;20506;-79
2022/10/15 16:09:58;;;;;;;4.10;0.90;;;;;;;;;;5027828;28;20180;-84
2022/10/15 16:13:03;;;;;;;6.53;1.17;;;;;;;;;;5016651;28;20652;-83
2022/10/15 16:16:08;;;;;;;4.03;0.63;;;;;;;;;;5026878;28;20518;-84
2022/10/15 16:19:12;;;;;;;1.53;0.80;;;;;;;;;;5037166;28;20534;-83
2022/10/15 16:22:18;;;;;;;3.23;0.90;;;;;;;;;;5014432;28;20177;-84
2022/10/15 16:25:22;;;;;;;4.50;1.00;;;;;;;;;;5037453;28;20209;-83
2022/10/15 16:28:26;;;;;;;2.67;0.77;;;;;;;;;;5027521;28;20181;-84
2022/10/15 16:31:35;;;;;;;4.30;0.97;;;;;;;;;;5015856;28;20177;-84
2022/10/15 16:34:39;;;;;;;2.83;0.80;;;;;;;;;;5038327;28;20683;-83
2022/10/15 16:37:44;;;;;;;2.27;1.20;;;;;;;;;;5015167;28;20616;-83
2022/10/15 16:40:48;;;;;;;1.30;0.90;;;;;;;;;;5036979;28;20192;-84
2022/10/15 16:43:53;;;;;;;5.20;1.30;;;;;;;;;;5013577;28;20216;-83
2022/10/15 16:46:56;;;;;;;3.00;0.87;;;;;;;;;;5013751;28;20668;-84
2022/10/15 16:50:01;;;;;;;2.80;1.07;;;;;;;;;;5014863;28;20176;-84
2022/10/15 16:53:05;;;;;;;2.63;0.97;;;;;;;;;;5029564;28;20177;-84
2022/10/15 16:56:14;;;;;;;2.63;1.07;;;;;;;;;;5017479;28;20168;-83
2022/10/15 16:59:19;;;;;;;3.17;1.07;;;;;;;;;;5037586;28;20169;-84
2022/10/15 17:02:23;;;;;;;3.30;1.17;;;;;;;;;;5014246;28;20185;-83
2022/10/15 17:05:27;;;;;;;5.37;1.20;;;;;;;;;;5013250;28;20564;-84
2022/10/15 17:08:39;;;;;;;9.63;1.13;;;;;;;;;;5035144;28;20196;-83
2022/10/15 17:11:45;;;;;;;10.53;1.30;;;;;;;;;;5027616;28;20180;-83
2022/10/15 17:14:50;;;;;;;4.07;1.20;;;;;;;;;;5025804;28;20566;-83
2022/10/15 17:17:54;;;;;;;6.77;1.47;;;;;;;;;;4998581;28;20178;-83
2022/10/15 17:20:58;;;;;;;2.83;1.23;;;;;;;;;;5027541;28;20200;-83
2022/10/15 17:24:05;;;;;;;3.23;1.10;;;;;;;;;;5025664;28;20228;-82
2022/10/15 17:27:10;;;;;;;3.43;1.07;;;;;;;;;;5025356;28;20189;-83
2022/10/15 17:30:14;;;;;;;3.53;0.97;;;;;;;;;;5049178;28;20200;-83
2022/10/15 17:33:18;;;;;;;6.53;1.00;;;;;;;;;;5037264;28;20216;-83
2022/10/15 17:36:23;;;;;;;5.87;1.00;;;;;;;;;;5027442;28;20169;-83
2022/10/15 17:39:28;;;;;;;1.73;1.20;;;;;;;;;;5021487;28;20173;-83
2022/10/15 17:42:32;;;;;;;2.80;0.97;;;;;;;;;;5047615;28;20557;-83
2022/10/15 17:45:37;;;;;;;4.63;1.17;;;;;;;;;;5021927;28;20205;-83
2022/10/15 17:48:41;;;;;;;4.17;0.93;;;;;;;;;;5022541;28;20181;-83
2022/10/15 17:51:46;;;;;;;5.70;1.03;;;;;;;;;;5021846;28;20182;-83
2022/10/15 17:54:50;;;;;;;2.20;0.90;;;;;;;;;;5034206;28;20229;-83
2022/10/15 17:57:55;;;;;;;2.80;0.80;;;;;;;;;;5035943;28;20189;-82
2022/10/15 18:01:00;;;;;;;3.20;0.90;;;;;;;;;;5013299;28;20177;-82
2022/10/15 18:04:05;;;;;;;2.73;0.97;;;;;;;;;;5045323;28;20217;-82
2022/10/15 18:07:09;;;;;;;2.77;1.00;;;;;;;;;;5022831;28;20221;-83
2022/10/15 18:10:14;;;;;;;4.53;1.10;;;;;;;;;;5023463;28;20178;-83
2022/10/15 18:13:19;;;;;;;2.30;0.90;;;;;;;;;;5021996;28;20221;-83
2022/10/15 18:16:23;;;;;;;1.33;0.90;;;;;;;;;;5032993;28;20185;-82
2022/10/15 18:19:28;;;;;;;3.73;1.10;;;;;;;;;;5032610;28;20633;-82
2022/10/15 18:22:32;;;;;;;2.40;0.90;;;;;;;;;;5021997;28;20463;-83
2022/10/15 18:25:36;;;;;;;3.23;0.90;;;;;;;;;;5047943;28;20542;-83
2022/10/15 18:28:42;;;;;;;1.53;0.87;;;;;;;;;;5035176;28;20177;-83
2022/10/15 18:31:47;;;;;;;3.23;0.90;;;;;;;;;;5037241;28;20174;-83
2022/10/15 18:34:51;;;;;;;5.77;1.10;;;;;;;;;;5021076;28;20225;-84
2022/10/15 18:37:55;;;;;;;2.63;0.97;;;;;;;;;;5022057;28;20174;-83
2022/10/15 18:40:59;;;;;;;7.17;1.23;;;;;;;;;;5029105;28;20640;-83
2022/10/15 18:44:14;;;;;;;6.20;1.20;;;;;;;;;;5033667;28;20224;-83
2022/10/15 18:47:18;;;;;;;8.67;1.03;;;;;;;;;;5021799;28;20209;-83
2022/10/15 18:50:23;;;;;;;1.20;0.90;;;;;;;;;;5036164;28;20181;-84
2022/10/15 18:53:28;;;;;;;5.77;0.90;;;;;;;;;;5022383;28;20267;-83
2022/10/15 18:56:34;;;;;;;2.90;1.03;;;;;;;;;;5018966;28;20177;-83